sensor_id;sensor_type;location;lat;lon;timestamp;P1;durP1;ratioP1;P2;durP2;ratioP2
4089;SDS011;2059;48.538;12.146;2023-12-20T00:00:29;3.30;;;3.10;;
4089;SDS011;2059;48.538;12.146;2023-12-20T00:05:32;3.13;;;3.03;;
4089;SDS011;2059;48.538;12.146;2023-12-20T00:10:35;3.83;;;3.63;;
4089;SDS011;2059;48.538;12.146;2023-12-20T00:15:37;6.10;;;4.07;;
4089;SDS011;2059;48.538;12.146;2023-12-20T00:20:40;4.27;;;3.93;;
4089;SDS011;2059;48.538;12.146;2023-12-20T00:25:42;3.10;;;3.00;;
4089;SDS011;2059;48.538;12.146;2023-12-20T00:30:43;3.47;;;3.27;;
4089;SDS011;2059;48.538;12.146;2023-12-20T00:35:46;2.93;;;2.60;;
4089;SDS011;2059;48.538;12.146;2023-12-20T00:40:48;3.27;;;2.97;;
4089;SDS011;2059;48.538;12.146;2023-12-20T00:45:50;2.77;;;2.60;;
4089;SDS011;2059;48.538;12.146;2023-12-20T00:50:53;3.60;;;3.30;;
4089;SDS011;2059;48.538;12.146;2023-12-20T00:55:55;3.70;;;3.60;;
4089;SDS011;2059;48.538;12.146;2023-12-20T01:00:58;9.63;;;3.93;;
4089;SDS011;2059;48.538;12.146;2023-12-20T01:06:01;3.47;;;3.37;;
4089;SDS011;2059;48.538;12.146;2023-12-20T01:11:04;2.50;;;2.50;;
4089;SDS011;2059;48.538;12.146;2023-12-20T01:16:06;3.50;;;3.40;;
4089;SDS011;2059;48.538;12.146;2023-12-20T01:21:13;2.17;;;2.17;;
4089;SDS011;2059;48.538;12.146;2023-12-20T01:26:15;2.57;;;2.47;;
4089;SDS011;2059;48.538;12.146;2023-12-20T01:31:17;2.80;;;2.67;;
4089;SDS011;2059;48.538;12.146;2023-12-20T01:36:20;2.53;;;2.53;;
4089;SDS011;2059;48.538;12.146;2023-12-20T01:41:22;2.77;;;2.67;;
4089;SDS011;2059;48.538;12.146;2023-12-20T01:46:23;2.80;;;2.70;;
4089;SDS011;2059;48.538;12.146;2023-12-20T01:51:27;2.67;;;2.50;;
4089;SDS011;2059;48.538;12.146;2023-12-20T01:56:30;2.83;;;2.63;;
4089;SDS011;2059;48.538;12.146;2023-12-20T02:01:33;3.20;;;3.00;;
4089;SDS011;2059;48.538;12.146;2023-12-20T02:06:36;2.47;;;2.37;;
4089;SDS011;2059;48.538;12.146;2023-12-20T02:11:41;3.37;;;3.17;;
4089;SDS011;2059;48.538;12.146;2023-12-20T02:16:43;2.50;;;2.50;;
4089;SDS011;2059;48.538;12.146;2023-12-20T02:21:46;2.97;;;2.87;;
4089;SDS011;2059;48.538;12.146;2023-12-20T02:26:49;2.60;;;2.60;;
4089;SDS011;2059;48.538;12.146;2023-12-20T02:31:51;2.90;;;2.83;;
4089;SDS011;2059;48.538;12.146;2023-12-20T02:36:54;2.53;;;2.50;;
4089;SDS011;2059;48.538;12.146;2023-12-20T02:41:55;2.50;;;2.40;;
4089;SDS011;2059;48.538;12.146;2023-12-20T02:46:57;2.50;;;2.50;;
4089;SDS011;2059;48.538;12.146;2023-12-20T02:52:00;2.50;;;2.40;;
4089;SDS011;2059;48.538;12.146;2023-12-20T02:57:02;2.50;;;2.40;;
4089;SDS011;2059;48.538;12.146;2023-12-20T03:02:04;2.67;;;2.60;;
4089;SDS011;2059;48.538;12.146;2023-12-20T03:07:07;2.87;;;2.77;;
4089;SDS011;2059;48.538;12.146;2023-12-20T03:12:09;2.10;;;2.10;;
4089;SDS011;2059;48.538;12.146;2023-12-20T03:17:10;2.20;;;2.20;;
4089;SDS011;2059;48.538;12.146;2023-12-20T03:22:13;2.43;;;2.33;;
4089;SDS011;2059;48.538;12.146;2023-12-20T03:27:15;2.30;;;2.20;;
4089;SDS011;2059;48.538;12.146;2023-12-20T03:32:17;2.33;;;2.33;;
4089;SDS011;2059;48.538;12.146;2023-12-20T03:37:21;2.27;;;2.17;;
4089;SDS011;2059;48.538;12.146;2023-12-20T03:42:23;2.43;;;2.43;;
4089;SDS011;2059;48.538;12.146;2023-12-20T03:47:24;2.47;;;2.47;;
4089;SDS011;2059;48.538;12.146;2023-12-20T03:52:28;2.57;;;2.57;;
4089;SDS011;2059;48.538;12.146;2023-12-20T03:57:29;2.70;;;2.60;;
4089;SDS011;2059;48.538;12.146;2023-12-20T04:02:31;2.20;;;2.20;;
4089;SDS011;2059;48.538;12.146;2023-12-20T04:07:34;2.10;;;2.10;;
4089;SDS011;2059;48.538;12.146;2023-12-20T04:12:36;2.40;;;2.20;;
4089;SDS011;2059;48.538;12.146;2023-12-20T04:17:38;2.03;;;1.80;;
4089;SDS011;2059;48.538;12.146;2023-12-20T04:22:41;1.90;;;1.90;;
4089;SDS011;2059;48.538;12.146;2023-12-20T04:27:43;1.57;;;1.57;;
4089;SDS011;2059;48.538;12.146;2023-12-20T04:32:45;1.50;;;1.50;;
4089;SDS011;2059;48.538;12.146;2023-12-20T04:37:48;1.40;;;1.40;;
4089;SDS011;2059;48.538;12.146;2023-12-20T04:42:50;2.00;;;1.90;;
4089;SDS011;2059;48.538;12.146;2023-12-20T04:47:52;1.30;;;1.30;;
4089;SDS011;2059;48.538;12.146;2023-12-20T04:52:55;1.87;;;1.87;;
4089;SDS011;2059;48.538;12.146;2023-12-20T04:57:57;1.73;;;1.70;;
4089;SDS011;2059;48.538;12.146;2023-12-20T05:02:58;1.50;;;1.50;;
4089;SDS011;2059;48.538;12.146;2023-12-20T05:08:01;2.00;;;1.90;;
4089;SDS011;2059;48.538;12.146;2023-12-20T05:13:04;2.77;;;2.67;;
4089;SDS011;2059;48.538;12.146;2023-12-20T05:18:06;2.30;;;2.20;;
4089;SDS011;2059;48.538;12.146;2023-12-20T05:23:09;2.50;;;2.40;;
4089;SDS011;2059;48.538;12.146;2023-12-20T05:28:11;1.93;;;1.93;;
4089;SDS011;2059;48.538;12.146;2023-12-20T05:33:13;1.60;;;1.60;;
4089;SDS011;2059;48.538;12.146;2023-12-20T05:38:16;1.43;;;1.43;;
4089;SDS011;2059;48.538;12.146;2023-12-20T05:43:18;2.00;;;2.00;;
4089;SDS011;2059;48.538;12.146;2023-12-20T05:48:20;2.20;;;2.10;;
4089;SDS011;2059;48.538;12.146;2023-12-20T05:53:23;2.27;;;2.20;;
4089;SDS011;2059;48.538;12.146;2023-12-20T05:58:25;1.83;;;1.83;;
4089;SDS011;2059;48.538;12.146;2023-12-20T06:03:26;1.27;;;1.27;;
4089;SDS011;2059;48.538;12.146;2023-12-20T06:08:29;1.40;;;1.40;;
4089;SDS011;2059;48.538;12.146;2023-12-20T06:13:31;1.20;;;1.20;;
4089;SDS011;2059;48.538;12.146;2023-12-20T06:18:33;1.40;;;1.40;;
4089;SDS011;2059;48.538;12.146;2023-12-20T06:23:37;1.40;;;1.40;;
4089;SDS011;2059;48.538;12.146;2023-12-20T06:28:39;1.10;;;1.10;;
4089;SDS011;2059;48.538;12.146;2023-12-20T06:33:40;1.03;;;1.03;;
4089;SDS011;2059;48.538;12.146;2023-12-20T06:38:45;1.20;;;1.20;;
4089;SDS011;2059;48.538;12.146;2023-12-20T06:43:46;1.20;;;1.20;;
4089;SDS011;2059;48.538;12.146;2023-12-20T06:48:48;1.30;;;1.30;;
4089;SDS011;2059;48.538;12.146;2023-12-20T06:53:51;1.10;;;1.10;;
4089;SDS011;2059;48.538;12.146;2023-12-20T06:58:53;3.90;;;1.87;;
4089;SDS011;2059;48.538;12.146;2023-12-20T07:03:55;1.47;;;1.40;;
4089;SDS011;2059;48.538;12.146;2023-12-20T07:08:58;1.13;;;1.10;;
4089;SDS011;2059;48.538;12.146;2023-12-20T07:13:59;1.73;;;1.63;;
4089;SDS011;2059;48.538;12.146;2023-12-20T07:19:01;1.00;;;1.00;;
4089;SDS011;2059;48.538;12.146;2023-12-20T07:24:04;1.30;;;1.30;;
4089;SDS011;2059;48.538;12.146;2023-12-20T07:29:06;1.10;;;1.10;;
4089;SDS011;2059;48.538;12.146;2023-12-20T07:34:08;1.50;;;1.50;;
4089;SDS011;2059;48.538;12.146;2023-12-20T07:39:11;1.20;;;1.20;;
4089;SDS011;2059;48.538;12.146;2023-12-20T07:44:13;1.50;;;1.40;;
4089;SDS011;2059;48.538;12.146;2023-12-20T07:49:15;2.03;;;2.03;;
4089;SDS011;2059;48.538;12.146;2023-12-20T07:54:18;1.50;;;1.50;;
4089;SDS011;2059;48.538;12.146;2023-12-20T07:59:20;1.50;;;1.50;;
4089;SDS011;2059;48.538;12.146;2023-12-20T08:04:22;1.30;;;1.30;;
4089;SDS011;2059;48.538;12.146;2023-12-20T08:09:25;1.70;;;1.70;;
4089;SDS011;2059;48.538;12.146;2023-12-20T08:14:26;1.37;;;1.37;;
4089;SDS011;2059;48.538;12.146;2023-12-20T08:19:28;1.67;;;1.60;;
4089;SDS011;2059;48.538;12.146;2023-12-20T08:24:31;2.63;;;2.53;;
4089;SDS011;2059;48.538;12.146;2023-12-20T08:29:33;1.57;;;1.57;;
4089;SDS011;2059;48.538;12.146;2023-12-20T08:34:35;1.47;;;1.47;;
4089;SDS011;2059;48.538;12.146;2023-12-20T08:39:38;1.20;;;1.20;;
4089;SDS011;2059;48.538;12.146;2023-12-20T08:44:39;1.37;;;1.30;;
4089;SDS011;2059;48.538;12.146;2023-12-20T08:49:41;1.57;;;1.57;;
4089;SDS011;2059;48.538;12.146;2023-12-20T08:54:45;1.70;;;1.70;;
4089;SDS011;2059;48.538;12.146;2023-12-20T08:59:46;1.60;;;1.50;;
4089;SDS011;2059;48.538;12.146;2023-12-20T09:04:48;1.30;;;1.30;;
4089;SDS011;2059;48.538;12.146;2023-12-20T09:09:51;1.60;;;1.60;;
4089;SDS011;2059;48.538;12.146;2023-12-20T09:14:53;1.90;;;1.80;;
4089;SDS011;2059;48.538;12.146;2023-12-20T09:19:55;1.80;;;1.70;;
4089;SDS011;2059;48.538;12.146;2023-12-20T09:24:58;1.60;;;1.60;;
4089;SDS011;2059;48.538;12.146;2023-12-20T09:30:00;1.73;;;1.67;;
4089;SDS011;2059;48.538;12.146;2023-12-20T09:35:02;1.47;;;1.40;;
4089;SDS011;2059;48.538;12.146;2023-12-20T09:40:07;2.00;;;1.90;;
4089;SDS011;2059;48.538;12.146;2023-12-20T09:45:12;1.70;;;1.70;;
4089;SDS011;2059;48.538;12.146;2023-12-20T09:50:16;1.80;;;1.70;;
4089;SDS011;2059;48.538;12.146;2023-12-20T09:55:22;1.50;;;1.50;;
4089;SDS011;2059;48.538;12.146;2023-12-20T10:00:24;1.80;;;1.77;;
4089;SDS011;2059;48.538;12.146;2023-12-20T10:05:26;1.50;;;1.50;;
4089;SDS011;2059;48.538;12.146;2023-12-20T10:10:30;1.63;;;1.60;;
4089;SDS011;2059;48.538;12.146;2023-12-20T10:15:32;1.83;;;1.83;;
4089;SDS011;2059;48.538;12.146;2023-12-20T10:20:34;1.70;;;1.60;;
4089;SDS011;2059;48.538;12.146;2023-12-20T10:25:37;2.97;;;1.60;;
4089;SDS011;2059;48.538;12.146;2023-12-20T10:30:40;1.77;;;1.70;;
4089;SDS011;2059;48.538;12.146;2023-12-20T10:35:42;1.93;;;1.93;;
4089;SDS011;2059;48.538;12.146;2023-12-20T10:40:45;1.90;;;1.83;;
4089;SDS011;2059;48.538;12.146;2023-12-20T10:45:47;2.43;;;2.23;;
4089;SDS011;2059;48.538;12.146;2023-12-20T10:50:49;2.13;;;2.13;;
4089;SDS011;2059;48.538;12.146;2023-12-20T10:55:53;3.07;;;2.97;;
4089;SDS011;2059;48.538;12.146;2023-12-20T11:06:00;2.10;;;2.10;;
4089;SDS011;2059;48.538;12.146;2023-12-20T11:11:09;1.70;;;1.70;;
4089;SDS011;2059;48.538;12.146;2023-12-20T11:16:18;2.00;;;1.90;;
4089;SDS011;2059;48.538;12.146;2023-12-20T11:21:20;1.50;;;1.50;;
4089;SDS011;2059;48.538;12.146;2023-12-20T11:26:23;1.90;;;1.90;;
4089;SDS011;2059;48.538;12.146;2023-12-20T11:31:28;1.77;;;1.77;;
4089;SDS011;2059;48.538;12.146;2023-12-20T11:36:40;2.03;;;1.93;;
4089;SDS011;2059;48.538;12.146;2023-12-20T11:41:45;1.83;;;1.83;;
4089;SDS011;2059;48.538;12.146;2023-12-20T11:46:47;1.80;;;1.80;;
4089;SDS011;2059;48.538;12.146;2023-12-20T11:51:48;1.60;;;1.60;;
4089;SDS011;2059;48.538;12.146;2023-12-20T11:56:52;1.77;;;1.77;;
4089;SDS011;2059;48.538;12.146;2023-12-20T12:01:54;1.73;;;1.70;;
4089;SDS011;2059;48.538;12.146;2023-12-20T12:07:00;1.97;;;1.97;;
4089;SDS011;2059;48.538;12.146;2023-12-20T12:12:05;2.87;;;2.87;;
4089;SDS011;2059;48.538;12.146;2023-12-20T12:17:09;1.90;;;1.80;;
4089;SDS011;2059;48.538;12.146;2023-12-20T12:22:12;1.90;;;1.90;;
4089;SDS011;2059;48.538;12.146;2023-12-20T12:27:17;2.50;;;2.50;;
4089;SDS011;2059;48.538;12.146;2023-12-20T12:32:19;1.73;;;1.70;;
4089;SDS011;2059;48.538;12.146;2023-12-20T12:37:22;1.80;;;1.80;;
4089;SDS011;2059;48.538;12.146;2023-12-20T12:42:26;1.80;;;1.80;;
4089;SDS011;2059;48.538;12.146;2023-12-20T12:47:29;2.00;;;2.00;;
4089;SDS011;2059;48.538;12.146;2023-12-20T12:52:31;2.27;;;2.27;;
4089;SDS011;2059;48.538;12.146;2023-12-20T12:57:34;2.50;;;2.40;;
4089;SDS011;2059;48.538;12.146;2023-12-20T13:02:36;2.17;;;2.17;;
4089;SDS011;2059;48.538;12.146;2023-12-20T13:07:41;2.70;;;2.70;;
4089;SDS011;2059;48.538;12.146;2023-12-20T13:12:46;2.77;;;2.67;;
4089;SDS011;2059;48.538;12.146;2023-12-20T13:17:48;2.40;;;2.40;;
4089;SDS011;2059;48.538;12.146;2023-12-20T13:22:50;2.60;;;2.60;;
4089;SDS011;2059;48.538;12.146;2023-12-20T13:27:54;3.63;;;3.53;;
4089;SDS011;2059;48.538;12.146;2023-12-20T13:32:56;2.80;;;2.70;;
4089;SDS011;2059;48.538;12.146;2023-12-20T13:37:58;2.23;;;2.23;;
4089;SDS011;2059;48.538;12.146;2023-12-20T13:43:01;2.80;;;2.60;;
4089;SDS011;2059;48.538;12.146;2023-12-20T13:48:04;2.30;;;2.30;;
4089;SDS011;2059;48.538;12.146;2023-12-20T13:53:06;3.00;;;2.80;;
4089;SDS011;2059;48.538;12.146;2023-12-20T13:58:09;2.40;;;2.30;;
4089;SDS011;2059;48.538;12.146;2023-12-20T14:03:11;2.33;;;2.33;;
4089;SDS011;2059;48.538;12.146;2023-12-20T14:08:12;2.40;;;2.40;;
4089;SDS011;2059;48.538;12.146;2023-12-20T14:13:16;3.73;;;3.63;;
4089;SDS011;2059;48.538;12.146;2023-12-20T14:18:17;3.50;;;3.50;;
4089;SDS011;2059;48.538;12.146;2023-12-20T14:23:19;4.30;;;4.10;;
4089;SDS011;2059;48.538;12.146;2023-12-20T14:28:22;4.00;;;3.90;;
4089;SDS011;2059;48.538;12.146;2023-12-20T14:33:24;3.83;;;3.73;;
4089;SDS011;2059;48.538;12.146;2023-12-20T14:38:26;2.63;;;2.53;;
4089;SDS011;2059;48.538;12.146;2023-12-20T14:43:29;3.10;;;3.10;;
4089;SDS011;2059;48.538;12.146;2023-12-20T14:48:31;2.40;;;2.40;;
4089;SDS011;2059;48.538;12.146;2023-12-20T14:53:33;2.63;;;2.57;;
4089;SDS011;2059;48.538;12.146;2023-12-20T14:58:38;2.60;;;2.60;;
4089;SDS011;2059;48.538;12.146;2023-12-20T15:03:40;3.00;;;2.90;;
4089;SDS011;2059;48.538;12.146;2023-12-20T15:08:42;2.43;;;2.43;;
4089;SDS011;2059;48.538;12.146;2023-12-20T15:13:45;2.37;;;2.37;;
4089;SDS011;2059;48.538;12.146;2023-12-20T15:18:54;2.10;;;2.10;;
4089;SDS011;2059;48.538;12.146;2023-12-20T15:23:57;2.50;;;2.50;;
4089;SDS011;2059;48.538;12.146;2023-12-20T15:29:07;3.33;;;3.23;;
4089;SDS011;2059;48.538;12.146;2023-12-20T15:34:09;2.97;;;2.87;;
4089;SDS011;2059;48.538;12.146;2023-12-20T15:39:11;2.47;;;2.47;;
4089;SDS011;2059;48.538;12.146;2023-12-20T15:44:15;2.87;;;2.80;;
4089;SDS011;2059;48.538;12.146;2023-12-20T15:49:17;2.80;;;2.70;;
4089;SDS011;2059;48.538;12.146;2023-12-20T15:54:19;2.30;;;2.30;;
4089;SDS011;2059;48.538;12.146;2023-12-20T15:59:22;2.50;;;2.40;;
4089;SDS011;2059;48.538;12.146;2023-12-20T16:04:24;2.83;;;2.73;;
4089;SDS011;2059;48.538;12.146;2023-12-20T16:09:25;2.10;;;2.10;;
4089;SDS011;2059;48.538;12.146;2023-12-20T16:14:28;2.00;;;2.00;;
4089;SDS011;2059;48.538;12.146;2023-12-20T16:19:30;2.47;;;2.40;;
4089;SDS011;2059;48.538;12.146;2023-12-20T16:24:32;2.43;;;2.33;;
4089;SDS011;2059;48.538;12.146;2023-12-20T16:29:36;2.50;;;2.40;;
4089;SDS011;2059;48.538;12.146;2023-12-20T16:34:38;2.70;;;2.60;;
4089;SDS011;2059;48.538;12.146;2023-12-20T16:39:40;2.40;;;2.30;;
4089;SDS011;2059;48.538;12.146;2023-12-20T16:44:43;1.93;;;1.93;;
4089;SDS011;2059;48.538;12.146;2023-12-20T16:49:45;2.57;;;2.47;;
4089;SDS011;2059;48.538;12.146;2023-12-20T16:54:46;2.13;;;2.03;;
4089;SDS011;2059;48.538;12.146;2023-12-20T16:59:49;2.37;;;2.20;;
4089;SDS011;2059;48.538;12.146;2023-12-20T17:04:51;2.10;;;2.10;;
4089;SDS011;2059;48.538;12.146;2023-12-20T17:09:53;2.30;;;2.30;;
4089;SDS011;2059;48.538;12.146;2023-12-20T17:14:56;2.80;;;2.63;;
4089;SDS011;2059;48.538;12.146;2023-12-20T17:20:00;2.30;;;2.30;;
4089;SDS011;2059;48.538;12.146;2023-12-20T17:25:02;2.43;;;2.30;;
4089;SDS011;2059;48.538;12.146;2023-12-20T17:30:06;2.50;;;2.30;;
4089;SDS011;2059;48.538;12.146;2023-12-20T17:35:08;2.33;;;2.33;;
4089;SDS011;2059;48.538;12.146;2023-12-20T17:40:10;2.23;;;2.13;;
4089;SDS011;2059;48.538;12.146;2023-12-20T17:45:14;2.00;;;2.00;;
4089;SDS011;2059;48.538;12.146;2023-12-20T17:50:16;2.33;;;2.30;;
4089;SDS011;2059;48.538;12.146;2023-12-20T17:55:17;2.03;;;2.03;;
4089;SDS011;2059;48.538;12.146;2023-12-20T18:00:22;3.00;;;2.90;;
4089;SDS011;2059;48.538;12.146;2023-12-20T18:05:27;2.30;;;2.20;;
4089;SDS011;2059;48.538;12.146;2023-12-20T18:10:29;2.63;;;2.57;;
4089;SDS011;2059;48.538;12.146;2023-12-20T18:15:32;2.53;;;2.43;;
4089;SDS011;2059;48.538;12.146;2023-12-20T18:20:33;2.30;;;2.30;;
4089;SDS011;2059;48.538;12.146;2023-12-20T18:25:35;2.20;;;2.20;;
4089;SDS011;2059;48.538;12.146;2023-12-20T18:30:39;2.00;;;2.00;;
4089;SDS011;2059;48.538;12.146;2023-12-20T18:35:41;2.03;;;2.03;;
4089;SDS011;2059;48.538;12.146;2023-12-20T18:40:43;2.00;;;2.00;;
4089;SDS011;2059;48.538;12.146;2023-12-20T18:45:49;2.17;;;1.97;;
4089;SDS011;2059;48.538;12.146;2023-12-20T18:50:51;1.93;;;1.93;;
4089;SDS011;2059;48.538;12.146;2023-12-20T18:55:52;1.97;;;1.97;;
4089;SDS011;2059;48.538;12.146;2023-12-20T19:00:56;1.90;;;1.90;;
4089;SDS011;2059;48.538;12.146;2023-12-20T19:05:57;2.20;;;2.20;;
4089;SDS011;2059;48.538;12.146;2023-12-20T19:11:01;2.37;;;2.33;;
4089;SDS011;2059;48.538;12.146;2023-12-20T19:16:05;1.80;;;1.80;;
4089;SDS011;2059;48.538;12.146;2023-12-20T19:21:07;2.23;;;2.13;;
4089;SDS011;2059;48.538;12.146;2023-12-20T19:26:08;1.87;;;1.87;;
4089;SDS011;2059;48.538;12.146;2023-12-20T19:31:12;2.20;;;2.10;;
4089;SDS011;2059;48.538;12.146;2023-12-20T19:36:14;1.97;;;1.97;;
4089;SDS011;2059;48.538;12.146;2023-12-20T19:41:16;2.33;;;2.33;;
4089;SDS011;2059;48.538;12.146;2023-12-20T19:46:19;2.10;;;2.10;;
4089;SDS011;2059;48.538;12.146;2023-12-20T19:51:21;2.73;;;2.73;;
4089;SDS011;2059;48.538;12.146;2023-12-20T19:56:23;2.47;;;2.37;;
4089;SDS011;2059;48.538;12.146;2023-12-20T20:01:27;2.30;;;2.30;;
4089;SDS011;2059;48.538;12.146;2023-12-20T20:06:29;2.13;;;2.03;;
4089;SDS011;2059;48.538;12.146;2023-12-20T20:11:30;1.97;;;1.93;;
4089;SDS011;2059;48.538;12.146;2023-12-20T20:16:33;2.27;;;2.27;;
4089;SDS011;2059;48.538;12.146;2023-12-20T20:21:35;2.20;;;2.10;;
4089;SDS011;2059;48.538;12.146;2023-12-20T20:26:37;2.17;;;2.17;;
4089;SDS011;2059;48.538;12.146;2023-12-20T20:31:41;2.00;;;2.00;;
4089;SDS011;2059;48.538;12.146;2023-12-20T20:36:42;2.10;;;2.10;;
4089;SDS011;2059;48.538;12.146;2023-12-20T20:41:44;2.30;;;2.27;;
4089;SDS011;2059;48.538;12.146;2023-12-20T20:46:47;1.93;;;1.93;;
4089;SDS011;2059;48.538;12.146;2023-12-20T20:51:50;2.10;;;2.10;;
4089;SDS011;2059;48.538;12.146;2023-12-20T20:56:52;1.93;;;1.83;;
4089;SDS011;2059;48.538;12.146;2023-12-20T21:01:55;2.23;;;2.17;;
4089;SDS011;2059;48.538;12.146;2023-12-20T21:06:57;1.90;;;1.90;;
4089;SDS011;2059;48.538;12.146;2023-12-20T21:11:59;1.60;;;1.60;;
4089;SDS011;2059;48.538;12.146;2023-12-20T21:17:02;1.80;;;1.80;;
4089;SDS011;2059;48.538;12.146;2023-12-20T21:22:04;1.90;;;1.90;;
4089;SDS011;2059;48.538;12.146;2023-12-20T21:27:06;1.70;;;1.70;;
4089;SDS011;2059;48.538;12.146;2023-12-20T21:32:09;1.50;;;1.50;;
4089;SDS011;2059;48.538;12.146;2023-12-20T21:37:12;2.07;;;1.97;;
4089;SDS011;2059;48.538;12.146;2023-12-20T21:42:13;1.70;;;1.70;;
4089;SDS011;2059;48.538;12.146;2023-12-20T21:47:17;1.90;;;1.90;;
4089;SDS011;2059;48.538;12.146;2023-12-20T21:52:18;2.03;;;1.93;;
4089;SDS011;2059;48.538;12.146;2023-12-20T21:57:20;1.80;;;1.80;;
4089;SDS011;2059;48.538;12.146;2023-12-20T22:02:24;1.70;;;1.70;;
4089;SDS011;2059;48.538;12.146;2023-12-20T22:07:25;1.70;;;1.70;;
4089;SDS011;2059;48.538;12.146;2023-12-20T22:12:27;1.63;;;1.63;;
4089;SDS011;2059;48.538;12.146;2023-12-20T22:17:30;9.23;;;1.90;;
4089;SDS011;2059;48.538;12.146;2023-12-20T22:22:32;1.77;;;1.77;;
4089;SDS011;2059;48.538;12.146;2023-12-20T22:27:34;2.13;;;2.03;;
4089;SDS011;2059;48.538;12.146;2023-12-20T22:32:37;1.80;;;1.80;;
4089;SDS011;2059;48.538;12.146;2023-12-20T22:37:38;1.87;;;1.80;;
4089;SDS011;2059;48.538;12.146;2023-12-20T22:42:41;1.80;;;1.80;;
4089;SDS011;2059;48.538;12.146;2023-12-20T22:47:45;1.60;;;1.60;;
4089;SDS011;2059;48.538;12.146;2023-12-20T22:52:47;2.10;;;2.10;;
4089;SDS011;2059;48.538;12.146;2023-12-20T23:02:53;1.83;;;1.83;;
4089;SDS011;2059;48.538;12.146;2023-12-20T23:07:55;1.90;;;1.90;;
4089;SDS011;2059;48.538;12.146;2023-12-20T23:12:56;1.60;;;1.60;;
4089;SDS011;2059;48.538;12.146;2023-12-20T23:18:00;1.80;;;1.80;;
4089;SDS011;2059;48.538;12.146;2023-12-20T23:23:01;2.77;;;2.67;;
4089;SDS011;2059;48.538;12.146;2023-12-20T23:28:03;2.30;;;2.30;;
4089;SDS011;2059;48.538;12.146;2023-12-20T23:33:07;2.60;;;2.50;;
4089;SDS011;2059;48.538;12.146;2023-12-20T23:38:08;2.40;;;2.40;;
4089;SDS011;2059;48.538;12.146;2023-12-20T23:43:10;2.30;;;2.30;;
4089;SDS011;2059;48.538;12.146;2023-12-20T23:48:13;5.13;;;2.80;;
4089;SDS011;2059;48.538;12.146;2023-12-20T23:53:15;2.13;;;2.13;;
4089;SDS011;2059;48.538;12.146;2023-12-20T23:58:17;2.47;;;2.47;;
